Julen Molina

Chief Scout - Alavés
3 Dec 2028
Sunday
Process

Personality

Adaptability (12) Ambition (12) Controversy (13) Loyalty (6) Pressure (19) Professionalism (4) Sportsmanship (13) Temperament (12)

Profile

Coaching Style Democratic
License National B
Determination 13
Man Management 11
Motivating 9
Discipline 10
Job Satisfaction
100%
Fatigue
0%
Role Chief Scout
Wage 51.2K p/w
Contract 14.03.2030

Performance

Behaviour Good
Training Effectiveness
50%
Player Development
50%
Injury Prevention
45%
Tactical Implementation
60%

Recent Events

Attended a recruitment meeting now
Attended a recruitment meeting now
Recommended a transfer target now
Recommended a transfer target now
Recommended a transfer target now
Recommended a transfer target now
Recommended a transfer target 7d ago
Observed a match 7d ago

Currently Monitoring

162
Player Club Status Ability Confidence Watched Last Observed Latest Vote
Felipe Obradovich Ferro Carril Oeste Active 117 / 108 40% 1 30.08.2028 -
Valentín Loza Defensa y Justicia Active 113 / 118 40% 1 30.08.2028 -
Konta Ismaily Negotiating 115 / 119 40% 1 14.08.2028 -
Luis Otávio Orlando City Active 120 / 124 40% 1 14.08.2028 -
Fran Gámez Albacete Active 124 / 119 58% 1 07.08.2028 -
Lautaro Dufur Juventud Active 116 / 101 40% 1 03.07.2028 -
Tobías Ramírez River Plate Active 113 / 135 40% 1 03.07.2028 -
Giovanni Leoni Lincoln City Active 145 / 141 40% 2 07.06.2028 -
Andrija Bulatović Chamois Niortais Active 137 / 130 40% 1 01.06.2028 -
Martim Cunha Porto Active 103 / 113 40% 1 01.06.2028 -
Christos Mouzakitis Hull City Active 143 / 140 40% 3 09.05.2028 -
Honest Ahanor Atalanta Active 130 / 138 40% 2 06.05.2028 -
Olivier Leroux Mouscron Active 110 / 114 40% 1 05.05.2028 -
Andrey Ivlev Nizhniy Novgorod Active 104 / 119 40% 1 05.05.2028 -
Daniel Banjaqui Benfica Active 117 / 133 40% 1 04.05.2028 -
Celías Ingenthron Platense Active 131 / 127 40% 1 03.05.2028 -
Facundo Torres Millonarios Active 134 / 134 67% 1 01.01.2028 Approve
Bitello Universidad de Chile Active 135 / 135 68% 1 01.01.2028 Approve
Roberto Fernández Braga Active 138 / 140 66% 1 01.01.2028 Approve
Mao Hosoya Santos Active 134 / 135 67% 1 01.01.2028 Approve
Guus Til PSV Active 140 / 140 63% 1 01.01.2028 Approve
Sam Proctor Salford City Active 117 / 129 40% 1 01.01.2028 -
Juan Rodríguez Cerro Largo Active 84 / 95 40% 2 31.12.2027 -
Ben Broggio Mansfield Town Active 97 / 114 40% 1 31.12.2027 -
Nicolás Barros Schelotto Gimnasia La Plata Active 106 / 128 40% 2 30.12.2027 -
Rémi Himbert AC Ajaccio Active 127 / 123 40% 1 30.12.2027 -
Alex Verón Vélez Active 106 / 131 40% 4 28.12.2027 -
Valentino Acuña Newell's Old Boys Active 116 / 116 40% 2 28.12.2027 -
Ruben Ramos LA Galaxy Active 108 / 100 40% 2 27.12.2027 -
Mateo Peralta Danubio Active 118 / 127 40% 2 27.12.2027 -
Jeremías Merlo Gimnasia La Plata Active 114 / 119 40% 8 25.12.2027 -
Victor Hernandez Santa Fe Active 124 / 133 40% 7 23.12.2027 -
Edison Gruezo Guadalajara Active 123 / 123 40% 2 23.12.2027 -
Tomás Aranda Boca Juniors Active 102 / 130 40% 5 14.12.2027 -
Siyabonga Mabena Bidvest Wits Active 106 / 117 40% 1 07.12.2027 -
Francisco Marchant Colo-Colo Active 88 / 95 40% 1 03.12.2027 -
Giovanni Baroni Talleres Active 126 / 132 40% 3 24.11.2027 -
Matías Arias Vélez Active 106 / 112 40% 1 23.11.2027 -
Tahiel Peralta Racing Club Active 103 / 115 40% 1 23.11.2027 -
Josh Nichols Oldham Athletic Active 108 / 129 40% 1 08.11.2027 -
Malick Yalcouyé Brighton Active 139 / 137 40% 1 06.11.2027 -
Felipe Faúndez O'Higgins Active 116 / 112 40% 2 05.11.2027 -
Edvard Pettersen Sandefjord Active 106 / 115 40% 1 05.11.2027 -
Alejandro Almaraz NK Celje Active 104 / 118 40% 1 04.11.2027 -
Nazareno Roselli Defensa y Justicia Active 103 / 114 40% 1 01.11.2027 -
Timoteo Chamorro Talleres Active 96 / 118 40% 1 18.10.2027 -
Jorge Salinas Racing Santander Active 125 / 139 40% 1 15.10.2027 -
Ulises Giménez River Plate Active 129 / 107 40% 1 08.10.2027 -
Zahir Ibarra Defensa y Justicia Active 118 / 109 40% 1 08.10.2027 -
Juan Manuel Villalba Tigre Active 121 / 115 40% 2 07.10.2027 -
Nahuel Leivas Montevideo City Torque Active 109 / 113 40% 1 07.10.2027 -
Jonny Shore New York City Active 105 / 100 40% 1 06.10.2027 -
Oscar Steinke Brånby Hammarby Active 96 / 102 40% 1 06.10.2027 -
Ayden Heaven Portsmouth Active 157 / 146 40% 1 05.10.2027 -
Josh Acheampong Everton Active 148 / 151 40% 1 04.10.2027 -
Piero Cari Alianza Lima Active 96 / 103 40% 1 23.08.2027 -
Martín Almeida Montevideo City Torque Active 80 / 94 40% 1 21.06.2027 -
Martín D'Aurizio Huracán Active 82 / 107 40% 1 08.06.2027 -
Thiago Perruisset Boca Juniors Active 97 / 91 40% 1 08.06.2027 -
Caleb Yirenkyi Coventry City Active 137 / 141 40% 1 31.05.2027 -
Marcel Ruiz Crystal Palace Active 135 / 145 40% 4 28.05.2027 -
Aimar Osasuna Active 137 / 140 40% 4 28.05.2027 -
Kevin Fulham Active 160 / 154 40% 2 25.05.2027 -
Mohamed-Ali Cho Hull City Active 142 / 142 40% 2 23.05.2027 -
Isaiah Jones Luton Town Active 124 / 126 40% 4 23.05.2027 -
David Larrubia Málaga Active 121 / 133 40% 1 20.05.2027 -
Ez Abde Betis Active 138 / 153 40% 5 19.05.2027 -
Pablo Santiago Castellón Active 127 / 129 40% 2 18.05.2027 -
Andrés Martín Racing Santander Active 148 / 140 40% 3 08.05.2027 -
Jack Rudoni Coventry City Active 132 / 128 40% 1 05.05.2027 -
Finn Azaz Southampton Active 137 / 124 40% 2 30.04.2027 -
Antony Betis Active 154 / 145 40% 1 30.04.2027 -
Omar El Hilali Espanyol Active 158 / 157 40% 1 29.04.2027 -
Gaspar Gijón Active 148 / 131 40% 1 23.04.2027 Needs More Info
Tyrhys Dolan Espanyol Active 129 / 137 40% 2 21.04.2027 -
Yeremy Pino Crystal Palace Active 161 / 156 40% 5 20.04.2027 -
Derensili Sanches Fernandes Huddersfield Town Active 123 / 125 40% 1 15.04.2027 -
Savinho Tottenham Active 155 / 149 40% 1 14.04.2027 -
Raúl Moro Osasuna Active 130 / 148 40% 1 14.04.2027 -
Chemsdine Talbi Sunderland Active 139 / 150 40% 2 12.04.2027 -
Abel Ruiz Girona Active 145 / 140 40% 1 12.04.2027 -
Óscar Mingueza Crystal Palace Active 162 / 153 40% 2 09.04.2027 -
Fidel Ambríz Monterrey Active 137 / 124 40% 2 06.04.2027 -
Mikkel Damsgaard Brentford Active 142 / 147 40% 1 05.04.2027 -
Bongani Zungu Ajax Cape Town Active 133 / 123 40% 3 27.03.2027 -
Carlos Álvarez Club America Active 148 / 134 40% 7 27.03.2027 -
Manor Solomon West Ham United Active 136 / 133 40% 2 22.03.2027 -
Mikel Jauregizar Athletic Bilbao Active 149 / 164 40% 2 10.03.2027 -
Carlos Forbs Club Brugge Active 139 / 129 40% 1 08.03.2027 -
Jeremy Márquez Cruz Azul Active 114 / 127 40% 1 23.02.2027 -
Diego López Valencia Active 146 / 140 40% 1 21.02.2027 -
Jonathan Dubasin Osasuna Active 138 / 142 40% 2 18.02.2027 -
Pau Víctor Braga Active 148 / 129 40% 2 15.02.2027 -
Pablo Torre Mallorca Active 137 / 152 40% 1 15.02.2027 -
Ilias Sebaoui Sint-Truiden Active 117 / 122 40% 1 10.02.2027 -
Giacomo Raspadori Atalanta Active 146 / 137 40% 2 07.02.2027 -
Oihan Sancet Athletic Bilbao Active 155 / 154 40% 1 06.02.2027 -
Osame Sahraoui LOSC Lille Active 138 / 143 40% 1 04.02.2027 -
Richard Ledezma Guadalajara Active 144 / 124 40% 1 04.02.2027 -
Omar Campos Cruz Azul Active 110 / 128 40% 1 01.02.2027 -
Rodrigo Muniz Fulham Active 139 / 146 40% 1 30.12.2026 -
Iliman N'Diaye Everton Active 156 / 152 40% 6 24.12.2026 -
Troy Parrott Betis Active 134 / 143 40% 3 22.12.2026 -
Christantus Uche Getafe Active 145 / 130 40% 2 20.12.2026 -
Cody Gakpo Liverpool Active 157 / 149 40% 2 19.12.2026 -
Hugo Duro Valencia Active 149 / 149 40% 1 18.12.2026 -
Othmane Maamma Watford Active 130 / 125 40% 2 16.12.2026 -
Chupete Málaga Active 139 / 137 40% 3 13.12.2026 -
Nicolò Tresoldi Club Brugge Active 137 / 140 40% 1 13.12.2026 -
Alexis Cuello San Lorenzo Active 109 / 127 40% 3 11.12.2026 -
Santiago Segovia Rosario Central Active 122 / 125 40% 1 10.12.2026 -
Maroan Sannadi Athletic Bilbao Active 131 / 132 40% 1 09.12.2026 -
William Gomes Porto Active 135 / 139 40% 1 08.12.2026 -
Justo Giani Umraniyespor Active 121 / 129 40% 3 06.12.2026 -
Kirill Glebov CSKA Moscow Active 124 / 125 40% 1 06.12.2026 -
Duk Atlas Active 124 / 112 40% 3 03.12.2026 -
Rocco Vata Watford Active 126 / 122 40% 1 03.12.2026 -
Ricardo Pepi Mallorca Active 145 / 146 40% 1 29.11.2026 -
Yousef Salech Cardiff City Active 130 / 125 40% 1 25.11.2026 -
Nico O'Reilly Manchester City Active 146 / 157 40% 1 22.11.2026 -
Georginio Rutter Brighton Active 145 / 148 40% 1 13.11.2026 -
Lucas Varaldo Morelia Active 121 / 131 40% 3 12.11.2026 -
Wilson Isidor Sunderland Active 130 / 127 40% 1 11.11.2026 -
Fábio Carvalho Brentford Active 127 / 147 40% 1 08.11.2026 -
Yael Padilla Tijuana Active 117 / 110 40% 1 08.11.2026 -
Jan Virgili Club Brugge Active 136 / 134 40% 1 05.11.2026 -
Peque Real Sociedad Active 149 / 141 40% 2 01.11.2026 -
Nicolás Cordero Aldosivi Active 116 / 110 40% 1 29.10.2026 -
Nicolas Jackson Aston Villa Active 155 / 136 40% 1 26.10.2026 -
Ivo Mammini Beitar Jerusalem Active 105 / 128 40% 2 19.10.2026 -
Ruyery Blanco Alianza Petrolera Active 100 / 122 40% 1 19.10.2026 -
Juan Cruz de los Santos Nacional Active 128 / 115 40% 3 18.10.2026 -
Ramiro Hernandes Belgrano Active 134 / 115 40% 1 18.10.2026 -
Juan Velázquez Belgrano Active 121 / 117 40% 1 18.10.2026 -
Isaac Romero Sevilla Active 135 / 130 40% 1 17.10.2026 -
Yoshan Valois Lanús Active 109 / 115 40% 1 14.10.2026 -
Agustín Gallo Tristán Suárez Active 110 / 110 40% 1 09.10.2026 -
Juan Rocca Gimnasia y Tiro Active 122 / 114 40% 2 07.10.2026 -
Fabrizio Sartori Independiente Rivadavia Active 126 / 131 40% 1 06.10.2026 -
Alex Scott Bournemouth Active 137 / 155 40% 1 06.10.2026 -
Lucien Agoumé Sevilla Active 148 / 142 40% 1 06.10.2026 -
Erik Lira Cruz Azul Active 120 / 129 40% 1 05.10.2026 -
Sandro Tonali Tottenham Active 174 / 171 40% 1 05.10.2026 -
Agustín Paz Progreso Active 117 / 104 40% 1 03.10.2026 -
Gonzalo Flores Almirante Brown Active 121 / 115 40% 1 01.10.2026 -
Marco Miori Alvarado Active 126 / 115 40% 2 29.09.2026 -
Luca Franco Arsenal Active 106 / 122 40% 1 27.09.2026 -
Didier Dawson Envigado Active 86 / 125 40% 1 26.09.2026 -
Ignacio Perruzzi San Lorenzo Active 131 / 130 40% 1 23.09.2026 -
Talles Magno New York City Active 131 / 114 40% 1 23.09.2026 -
Aldahir Pérez Tijuana Active 94 / 107 40% 1 20.09.2026 -
Lautaro Vargas Unión de Santa Fe Active 111 / 113 40% 1 18.09.2026 -
Ignacio Russo Tigre Active 140 / 134 40% 1 16.09.2026 -
Renzo Reynaga Patronato Active 119 / 111 40% 1 15.09.2026 -
Facundo de León Progreso Active 126 / 108 40% 1 14.09.2026 -
Luciano Cosentino Wanderers Active 128 / 105 40% 1 14.09.2026 -
Kevin Álvarez Patriotas Active 81 / 118 40% 1 14.09.2026 -
Misael Sosa Godoy Cruz Active 102 / 100 40% 1 12.09.2026 -
Francisco Bonfiglio Boston River Active 101 / 124 40% 1 12.09.2026 -
Diego Gaitán Maipú Active 126 / 113 40% 1 10.09.2026 -
Lucas Duré Montevideo City Torque Active 113 / 96 40% 1 10.09.2026 -
Juan Bosca Racing Active 80 / 121 40% 1 31.08.2026 -